Time;durP1;ratioP1;P1;durP2;ratioP2;P2;SDS_P1;SDS_P2;PMS_P1;PMS_P2;Temp;Humidity;BMP_temperature;BMP_pressure;BME280_temperature;BME280_humidity;BME280_pressure;Samples;Min_cycle;Max_cycle;Signal;HPM_P1;HPM_P2
2021/07/27 00:00:43;;;;;;;15.00;9.20;;;;;;;22.33;63.14;100768.56;5041409;28;20068;-57
2021/07/27 00:03:10;;;;;;;14.07;9.32;;;;;;;22.47;62.52;100777.06;5036923;28;20068;-55
2021/07/27 00:05:38;;;;;;;14.93;9.13;;;;;;;22.44;61.53;100777.06;5067739;28;20041;-59
2021/07/27 00:08:25;;;;;;;13.23;8.48;;;;;;;22.20;62.60;100775.69;5066299;28;20049;-57
2021/07/27 00:10:53;;;;;;;16.15;9.52;;;;;;;22.02;62.02;100774.75;5063443;28;20059;-57
2021/07/27 00:13:21;;;;;;;12.18;8.88;;;;;;;21.87;61.78;100775.81;5068371;28;20053;-56
2021/07/27 00:15:48;;;;;;;12.57;8.52;;;;;;;21.88;61.60;100769.81;5057325;28;20037;-57
2021/07/27 00:18:15;;;;;;;11.80;8.95;;;;;;;21.81;61.63;100766.97;5067906;28;20056;-56
2021/07/27 00:20:43;;;;;;;17.02;8.50;;;;;;;21.63;62.29;100770.78;5073024;28;20044;-56
2021/07/27 00:23:11;;;;;;;12.95;8.65;;;;;;;21.34;63.37;100766.09;5072911;28;20048;-57
2021/07/27 00:25:39;;;;;;;12.55;9.02;;;;;;;21.30;63.25;100760.44;5055052;28;20049;-55
2021/07/27 00:28:06;;;;;;;13.25;8.95;;;;;;;21.22;63.50;100750.34;5072658;28;20049;-56
2021/07/27 00:30:34;;;;;;;12.45;7.90;;;;;;;21.37;63.34;100746.50;5074828;28;20481;-58
2021/07/27 00:33:01;;;;;;;14.85;8.80;;;;;;;21.51;62.51;100748.63;5074944;28;20082;-57
2021/07/27 00:35:31;;;;;;;13.57;8.13;;;;;;;21.50;62.58;100750.63;5093349;28;20051;-58
2021/07/27 00:40:46;;;;;;;14.30;8.38;;;;;;;21.26;63.28;100754.00;5094460;28;20063;-55
2021/07/27 00:43:16;;;;;;;12.48;8.18;;;;;;;21.29;63.25;100747.63;5094267;28;20055;-55
2021/07/27 00:45:43;;;;;;;;;;;;;;;21.22;64.00;100744.75;5076681;28;20055;-54
2021/07/27 00:48:10;;;;;;;11.32;8.20;;;;;;;21.25;63.59;100746.78;5072868;28;19920;-57
2021/07/27 00:50:38;;;;;;;12.25;8.43;;;;;;;21.34;63.07;100747.25;5073121;28;20139;-59
2021/07/27 00:53:06;;;;;;;12.43;8.73;;;;;;;21.47;63.46;100748.59;5056114;28;20064;-57
2021/07/27 00:55:34;;;;;;;12.63;8.27;;;;;;;21.65;62.90;100746.78;5076267;28;20057;-58
2021/07/27 00:58:02;;;;;;;15.80;9.00;;;;;;;21.54;63.15;100748.66;5094512;28;20063;-57
2021/07/27 01:00:29;;;;;;;21.60;9.00;;;;;;;21.44;63.05;100752.19;5094611;28;20666;-56
2021/07/27 01:02:56;;;;;;;15.52;9.13;;;;;;;21.54;63.16;100750.66;5077363;28;20413;-55
2021/07/27 01:05:25;;;;;;;14.95;8.30;;;;;;;21.38;63.42;100744.50;5073283;28;20052;-55
2021/07/27 01:07:53;;;;;;;17.83;8.60;;;;;;;21.40;63.75;100744.91;5071807;28;20052;-56
2021/07/27 01:10:20;;;;;;;13.30;8.05;;;;;;;21.56;63.21;100751.91;5055783;28;20052;-57
2021/07/27 01:12:48;;;;;;;12.73;9.32;;;;;;;21.35;63.39;100753.69;5073935;28;20049;-56
2021/07/27 01:15:17;;;;;;;12.60;8.55;;;;;;;21.55;63.28;100755.88;5073870;28;20514;-57
2021/07/27 01:17:45;;;;;;;17.17;8.40;;;;;;;21.51;63.50;100746.66;5075591;28;20059;-57
2021/07/27 01:39:21;;;;;;;12.65;8.45;;;;;;;21.45;64.10;100736.97;5008879;28;20060;-56
2021/07/27 01:44:34;;;;;;;14.05;8.60;;;;;;;21.38;64.17;100725.69;5056989;28;20060;-57
2021/07/27 01:47:01;;;;;;;15.30;8.60;;;;;;;21.52;64.20;100741.81;5057203;28;20049;-57
2021/07/27 01:49:28;;;;;;;12.82;8.40;;;;;;;21.39;64.20;100729.31;5056720;28;20164;-57
2021/07/27 01:51:56;;;;;;;12.90;8.88;;;;;;;21.33;64.71;100726.03;5039210;28;20057;-56
2021/07/27 01:54:29;;;;;;;12.90;8.05;;;;;;;21.21;64.95;100732.75;5061627;28;20047;-57
2021/07/27 01:56:56;;;;;;;13.23;8.48;;;;;;;21.24;65.25;100728.34;5089103;28;20056;-56
2021/07/27 01:59:24;;;;;;;14.50;8.68;;;;;;;21.30;65.00;100728.81;5097001;28;20433;-58
2021/07/27 02:01:51;;;;;;;13.35;8.40;;;;;;;21.56;64.59;100723.88;5097170;28;20051;-55
2021/07/27 02:04:18;;;;;;;14.05;8.55;;;;;;;21.50;64.04;100725.41;5096864;28;20044;-57
2021/07/27 02:06:46;;;;;;;11.90;8.93;;;;;;;21.37;64.71;100721.28;5096777;28;20056;-57
2021/07/27 02:09:15;;;;;;;14.68;8.35;;;;;;;21.41;64.81;100724.91;5096705;28;20067;-55
2021/07/27 02:11:47;;;;;;;15.20;10.00;;;;;;;21.32;64.48;100720.84;5061618;28;20048;-56
2021/07/27 02:14:16;;;;;;;12.55;8.60;;;;;;;21.00;65.27;100721.31;5093913;28;20048;-57
2021/07/27 02:16:44;;;;;;;10.05;7.80;;;;;;;21.02;65.63;100723.72;5057287;28;20060;-57
2021/07/27 02:19:11;;;;;;;15.05;8.82;;;;;;;21.18;65.74;100722.28;5056429;28;20040;-56
2021/07/27 02:21:38;;;;;;;13.45;8.77;;;;;;;21.03;65.74;100717.72;5056395;28;20057;-57
2021/07/27 02:24:05;;;;;;;16.52;8.70;;;;;;;21.00;65.76;100715.72;5038609;28;20064;-56
2021/07/27 02:26:32;;;;;;;14.93;8.93;;;;;;;21.36;65.10;100718.88;5056377;28;20079;-58
2021/07/27 02:29:00;;;;;;;11.63;8.43;;;;;;;21.02;65.92;100718.94;5056185;28;20052;-56
2021/07/27 02:31:37;;;;;;;14.75;8.95;;;;;;;20.92;65.85;100715.97;5064838;28;20053;-56
2021/07/27 02:34:05;;;;;;;14.35;9.45;;;;;;;21.05;66.02;100708.94;5038537;28;20052;-57
2021/07/27 02:36:32;;;;;;;11.18;8.60;;;;;;;21.11;65.69;100715.81;5055879;28;20053;-57
2021/07/27 02:39:04;;;;;;;14.07;8.80;;;;;;;20.89;66.21;100713.94;5038474;28;20048;-57
2021/07/27 02:41:31;;;;;;;13.48;9.18;;;;;;;20.90;66.80;100707.16;5056129;28;20056;-56
2021/07/27 02:44:00;;;;;;;15.52;9.10;;;;;;;20.93;66.35;100706.38;5037693;28;20061;-58
2021/07/27 02:46:27;;;;;;;12.73;9.07;;;;;;;21.14;65.37;100706.66;5073178;28;20044;-57
2021/07/27 02:48:54;;;;;;;13.70;8.48;;;;;;;20.84;66.82;100705.88;5058246;28;20064;-57
2021/07/27 02:51:21;;;;;;;16.80;9.15;;;;;;;21.04;66.34;100702.53;5076747;28;20052;-57
2021/07/27 02:53:50;;;;;;;10.93;8.60;;;;;;;21.01;66.58;100703.31;5077082;28;20052;-56
2021/07/27 02:56:20;;;;;;;17.80;9.57;;;;;;;21.00;66.54;100706.50;5083229;28;20059;-55
2021/07/27 02:58:47;;;;;;;12.47;8.67;;;;;;;20.99;66.15;100710.50;5095885;28;20134;-56
2021/07/27 03:01:14;;;;;;;19.48;9.60;;;;;;;20.91;66.98;100708.75;5096068;28;20549;-55
2021/07/27 03:03:41;;;;;;;13.48;9.13;;;;;;;20.93;66.97;100706.38;5095719;28;20039;-56
2021/07/27 03:06:12;;;;;;;13.93;8.95;;;;;;;20.94;66.39;100702.38;5071113;28;20049;-56
2021/07/27 03:09:02;;;;;;;14.55;9.25;;;;;;;20.86;67.28;100689.50;5036912;28;20056;-56
2021/07/27 03:11:30;;;;;;;15.32;9.07;;;;;;;20.93;66.97;100701.59;5055450;28;20508;-57
2021/07/27 03:13:58;;;;;;;18.35;9.45;;;;;;;20.85;67.37;100696.31;5021333;28;20040;-58
2021/07/27 03:16:25;;;;;;;13.40;9.40;;;;;;;20.86;67.10;100709.09;5055490;28;20049;-55
2021/07/27 03:18:53;;;;;;;13.63;9.30;;;;;;;20.77;67.67;100698.22;5055235;28;20052;-55
2021/07/27 03:21:21;;;;;;;13.60;9.27;;;;;;;20.58;68.27;100695.56;5037294;28;20060;-58
2021/07/27 03:23:49;;;;;;;12.60;9.02;;;;;;;20.58;68.43;100687.19;5066228;28;20036;-55
2021/07/27 03:26:17;;;;;;;15.15;9.63;;;;;;;20.71;67.57;100682.13;5075033;28;20040;-54
2021/07/27 03:28:45;;;;;;;13.50;8.98;;;;;;;20.79;67.49;100683.81;5074859;28;20052;-57
2021/07/27 03:31:13;;;;;;;12.98;8.82;;;;;;;20.92;67.22;100676.78;5057025;28;20052;-58
2021/07/27 03:33:41;;;;;;;15.40;9.15;;;;;;;21.08;66.74;100677.34;5074990;28;20048;-56
2021/07/27 03:36:08;;;;;;;12.60;9.60;;;;;;;20.94;67.10;100677.19;5074616;28;20059;-55
2021/07/27 03:38:39;;;;;;;12.73;9.13;;;;;;;20.81;67.41;100675.84;5066359;28;20080;-55
2021/07/27 03:41:08;;;;;;;16.52;9.48;;;;;;;20.81;67.70;100675.84;5053980;28;20057;-56
2021/07/27 03:43:36;;;;;;;17.35;8.85;;;;;;;20.90;66.92;100660.34;5054857;28;20060;-57
2021/07/27 03:46:04;;;;;;;12.25;8.75;;;;;;;20.88;67.20;100661.94;5054644;28;20049;-58
2021/07/27 03:48:31;;;;;;;16.45;8.77;;;;;;;20.88;67.09;100659.94;5036724;28;20512;-56
2021/07/27 03:50:59;;;;;;;15.55;9.02;;;;;;;20.66;67.54;100657.28;5036753;28;20072;-57
2021/07/27 03:53:26;;;;;;;15.80;9.15;;;;;;;20.72;67.75;100656.56;5054908;28;20056;-56
2021/07/27 03:55:54;;;;;;;12.82;8.90;;;;;;;20.94;67.24;100657.56;5061908;28;20623;-53
2021/07/27 03:58:21;;;;;;;15.20;8.55;;;;;;;20.86;67.05;100662.31;5085006;28;20048;-58
2021/07/27 04:00:49;;;;;;;13.80;8.40;;;;;;;20.93;67.54;100664.38;5074766;28;20044;-55
2021/07/27 04:03:16;;;;;;;11.73;8.88;;;;;;;20.92;66.58;100657.97;5074816;28;20059;-57
2021/07/27 04:05:43;;;;;;;14.25;10.00;;;;;;;20.89;67.14;100660.72;5074563;28;20048;-54
2021/07/27 04:08:12;;;;;;;14.63;9.32;;;;;;;20.73;67.54;100654.56;5040414;28;20052;-55
2021/07/27 04:10:39;;;;;;;14.32;9.25;;;;;;;20.81;67.11;100659.06;5074283;28;20044;-58
2021/07/27 04:13:06;;;;;;;12.70;8.80;;;;;;;20.94;67.06;100663.19;5072694;28;20064;-57
2021/07/27 04:15:34;;;;;;;13.10;9.68;;;;;;;21.08;66.13;100660.56;5056452;28;20055;-60
2021/07/27 04:18:01;;;;;;;14.75;9.25;;;;;;;20.98;66.53;100667.66;5074003;28;20055;-57
2021/07/27 04:20:28;;;;;;;14.07;9.48;;;;;;;20.79;67.22;100667.84;5073371;28;20052;-57
2021/07/27 04:22:56;;;;;;;15.70;9.63;;;;;;;20.71;67.50;100656.94;5074367;28;20052;-57
2021/07/27 04:25:23;;;;;;;13.70;9.13;;;;;;;20.77;67.66;100669.41;5056708;28;20051;-55
2021/07/27 04:27:51;;;;;;;17.05;9.65;;;;;;;20.64;67.92;100671.66;5071360;28;20068;-56
2021/07/27 04:30:19;;;;;;;15.93;9.85;;;;;;;20.64;67.73;100673.66;5053707;28;20049;-55
2021/07/27 04:32:46;;;;;;;14.95;9.60;;;;;;;20.74;67.43;100675.78;5053552;28;20068;-57
2021/07/27 04:35:13;;;;;;;14.52;9.40;;;;;;;20.72;67.48;100669.75;5053886;28;20049;-56
2021/07/27 04:37:40;;;;;;;13.98;9.27;;;;;;;20.71;67.79;100670.94;5053880;28;20045;-56
2021/07/27 04:40:08;;;;;;;17.13;9.40;;;;;;;20.63;67.96;100677.63;5053985;28;20056;-56
2021/07/27 04:42:35;;;;;;;15.48;9.13;;;;;;;20.79;67.59;100667.84;5054437;28;20051;-53
2021/07/27 04:45:03;;;;;;;13.02;8.93;;;;;;;20.68;67.94;100663.28;5055431;28;20056;-56
2021/07/27 04:47:30;;;;;;;18.50;9.88;;;;;;;20.62;68.07;100648.03;5054355;28;20506;-55
2021/07/27 04:49:57;;;;;;;14.70;9.38;;;;;;;20.54;68.34;100647.16;5054209;28;20056;-56
2021/07/27 04:52:25;;;;;;;15.82;9.40;;;;;;;20.60;68.49;100645.63;5053720;28;20057;-56
2021/07/27 04:54:55;;;;;;;17.55;10.00;;;;;;;20.46;68.87;100656.66;5036091;28;20053;-56
2021/07/27 04:57:22;;;;;;;16.42;9.55;;;;;;;20.38;68.56;100670.94;5070995;28;20406;-61
2021/07/27 04:59:50;;;;;;;13.93;9.32;;;;;;;20.57;68.72;100673.56;5093773;28;20056;-54
2021/07/27 05:02:17;;;;;;;14.18;9.23;;;;;;;20.65;68.31;100676.06;5093790;28;20051;-55
2021/07/27 05:04:46;;;;;;;15.65;10.43;;;;;;;20.54;68.63;100660.34;5093771;28;20051;-58
2021/07/27 05:07:13;;;;;;;14.95;9.65;;;;;;;20.62;68.74;100670.44;5059181;28;20044;-56
2021/07/27 05:09:40;;;;;;;14.25;9.68;;;;;;;20.65;68.15;100664.88;5075228;28;20052;-57
2021/07/27 05:12:08;;;;;;;15.80;10.38;;;;;;;20.58;68.08;100655.59;5057734;28;20060;-54
2021/07/27 05:14:35;;;;;;;16.98;9.20;;;;;;;20.60;67.72;100654.03;5073123;28;20048;-57
2021/07/27 05:17:10;;;;;;;18.73;9.93;;;;;;;20.69;68.27;100654.53;5055982;28;20053;-56
2021/07/27 05:20:04;;;;;;;14.23;9.43;;;;;;;20.57;68.75;100659.56;5073320;28;20053;-56
2021/07/27 05:22:35;;;;;;;15.18;9.35;;;;;;;20.55;68.65;100668.38;5069818;28;20069;-55
2021/07/27 05:25:03;;;;;;;14.45;9.65;;;;;;;20.54;68.88;100677.16;5073703;28;20063;-57
2021/07/27 05:27:34;;;;;;;13.00;9.48;;;;;;;20.52;68.56;100673.91;5055828;28;20049;-56
2021/07/27 05:30:03;;;;;;;13.45;9.15;;;;;;;20.56;68.23;100681.16;5053973;28;20064;-56
2021/07/27 05:32:30;;;;;;;12.55;8.98;;;;;;;20.55;68.48;100673.16;5073229;28;20060;-57
2021/07/27 05:34:59;;;;;;;13.60;9.68;;;;;;;20.56;68.51;100675.56;5055593;28;20060;-57
2021/07/27 05:37:26;;;;;;;13.73;10.00;;;;;;;20.45;68.47;100673.81;5073298;28;20056;-58
2021/07/27 05:39:55;;;;;;;17.50;10.18;;;;;;;20.57;68.26;100685.59;5072960;28;20048;-57
2021/07/27 05:42:23;;;;;;;13.45;9.80;;;;;;;20.55;67.96;100690.75;5073052;28;20067;-56
2021/07/27 05:44:51;;;;;;;15.77;9.45;;;;;;;20.53;68.65;100698.72;5055403;28;20049;-57
2021/07/27 05:47:18;;;;;;;12.88;9.00;;;;;;;20.64;68.00;100705.22;5054121;28;20440;-57
2021/07/27 05:49:45;;;;;;;15.57;9.68;;;;;;;20.70;67.50;100697.31;5035335;28;20084;-57
2021/07/27 05:52:13;;;;;;;14.23;9.40;;;;;;;20.88;69.24;100698.34;5070291;28;20063;-54
2021/07/27 05:54:40;;;;;;;14.05;8.93;;;;;;;20.80;67.66;100697.44;5055427;28;20061;-54
2021/07/27 05:57:12;;;;;;;13.13;8.82;;;;;;;20.57;68.03;100709.97;5087266;28;20384;-57
2021/07/27 05:59:40;;;;;;;16.73;8.70;;;;;;;20.52;67.88;100713.09;5093456;28;20048;-56
2021/07/27 06:02:07;;;;;;;15.68;9.15;;;;;;;20.61;68.18;100719.19;5085583;28;20420;-55
2021/07/27 06:04:35;;;;;;;14.90;9.40;;;;;;;20.65;67.72;100718.06;5026625;28;20045;-54
2021/07/27 06:07:02;;;;;;;18.08;9.55;;;;;;;20.39;68.40;100720.09;5039015;28;20559;-58
2021/07/27 06:09:30;;;;;;;15.25;8.90;;;;;;;20.63;68.83;100712.03;5057576;28;20048;-57
2021/07/27 06:11:57;;;;;;;14.45;9.45;;;;;;;20.70;66.83;100716.91;5038483;28;20053;-56
2021/07/27 06:14:24;;;;;;;15.38;9.80;;;;;;;20.66;68.51;100730.06;5056437;28;20052;-57
2021/07/27 06:16:51;;;;;;;13.75;9.52;;;;;;;20.74;68.18;100732.56;5056631;28;20045;-56
2021/07/27 06:19:19;;;;;;;18.65;9.80;;;;;;;20.85;67.18;100736.28;5056225;28;20041;-55
2021/07/27 06:21:46;;;;;;;14.63;9.23;;;;;;;20.77;67.61;100729.00;5039417;28;20415;-55
2021/07/27 06:24:13;;;;;;;17.30;9.40;;;;;;;20.81;67.92;100720.66;5041412;28;20049;-55
2021/07/27 06:26:40;;;;;;;13.20;9.30;;;;;;;20.62;67.78;100715.22;5066953;28;20056;-57
2021/07/27 06:29:08;;;;;;;16.75;9.98;;;;;;;20.65;67.95;100712.47;5044993;28;20611;-54
2021/07/27 06:31:39;;;;;;;12.98;8.65;;;;;;;20.55;68.05;100710.34;5076263;28;20059;-54
2021/07/27 06:34:10;;;;;;;17.58;9.45;;;;;;;20.43;68.66;100715.38;5043457;28;20052;-54
2021/07/27 06:36:37;;;;;;;;;;;;;;;20.39;68.47;100726.50;5039056;28;20049;-55
2021/07/27 06:39:04;;;;;;;15.48;9.93;;;;;;;20.46;68.06;100731.38;5057027;28;19920;-57
2021/07/27 06:41:31;;;;;;;18.67;9.98;;;;;;;20.54;67.90;100738.72;5056226;28;20049;-55
2021/07/27 06:43:58;;;;;;;17.20;9.32;;;;;;;20.60;67.74;100731.56;5056773;28;20044;-54
2021/07/27 06:46:28;;;;;;;17.88;9.18;;;;;;;20.57;67.85;100737.94;5071044;28;20056;-55
2021/07/27 06:48:56;;;;;;;17.10;9.32;;;;;;;20.51;67.96;100745.88;5075720;28;20053;-58
2021/07/27 06:51:24;;;;;;;19.35;9.80;;;;;;;20.65;67.36;100748.03;5075573;28;20492;-57
2021/07/27 06:53:51;;;;;;;16.45;9.38;;;;;;;20.71;67.75;100740.94;5057815;28;20048;-55
2021/07/27 06:56:19;;;;;;;14.38;9.35;;;;;;;20.75;67.42;100741.75;5083032;28;20469;-56
2021/07/27 06:58:47;;;;;;;17.20;9.52;;;;;;;20.71;67.36;100749.31;5096130;28;20055;-55
2021/07/27 07:01:14;;;;;;;15.48;10.52;;;;;;;20.77;67.13;100739.38;5095646;28;20055;-57
2021/07/27 07:03:43;;;;;;;17.52;9.40;;;;;;;20.72;67.24;100742.53;5095828;28;20051;-57
2021/07/27 07:06:15;;;;;;;15.48;9.27;;;;;;;20.82;67.31;100747.44;5072628;28;20044;-56
2021/07/27 07:08:43;;;;;;;16.38;9.90;;;;;;;20.93;67.24;100745.59;5066561;28;20044;-59
2021/07/27 07:11:12;;;;;;;15.25;9.50;;;;;;;20.83;66.84;100747.09;5064605;28;20067;-57
2021/07/27 07:13:40;;;;;;;19.30;9.52;;;;;;;20.88;66.45;100745.94;5047597;28;20053;-58
2021/07/27 07:16:11;;;;;;;14.75;9.70;;;;;;;20.80;66.61;100742.22;5056093;28;20071;-58
2021/07/27 07:18:39;;;;;;;21.63;10.02;;;;;;;20.92;66.10;100739.16;5036340;28;20056;-57
2021/07/27 07:21:07;;;;;;;19.15;9.75;;;;;;;20.97;66.03;100749.25;5060260;28;20052;-56
2021/07/27 07:23:35;;;;;;;17.27;10.02;;;;;;;21.40;65.31;100742.94;5075504;28;20067;-58
2021/07/27 07:26:04;;;;;;;16.48;9.60;;;;;;;21.15;65.71;100753.06;5037745;28;20056;-57
2021/07/27 07:28:32;;;;;;;17.67;9.15;;;;;;;21.29;65.98;100758.81;5021010;28;20535;-56
2021/07/27 07:31:02;;;;;;;18.80;10.20;;;;;;;21.14;65.58;100755.09;5054943;28;20431;-56
2021/07/27 07:33:30;;;;;;;16.10;9.13;;;;;;;21.15;65.31;100747.47;5073138;28;20059;-57
2021/07/27 07:35:57;;;;;;;20.98;10.45;;;;;;;21.39;65.33;100752.53;5074889;28;20545;-57
2021/07/27 07:38:25;;;;;;;14.43;9.35;;;;;;;21.76;66.31;100749.69;5072760;28;20433;-56
2021/07/27 07:40:52;;;;;;;14.48;9.30;;;;;;;21.81;66.63;100744.53;5054779;28;20049;-58
2021/07/27 07:43:19;;;;;;;15.63;9.63;;;;;;;21.87;63.66;100740.19;5056021;28;20060;-55
2021/07/27 07:45:46;;;;;;;41.88;11.43;;;;;;;22.00;63.23;100744.25;5056305;28;20053;-55
2021/07/27 07:48:14;;;;;;;19.23;10.25;;;;;;;22.06;63.12;100753.94;5038349;28;20502;-55
2021/07/27 07:50:41;;;;;;;15.63;8.75;;;;;;;22.28;65.07;100752.09;5025577;28;20052;-57
2021/07/27 07:53:08;;;;;;;14.00;8.60;;;;;;;22.20;62.31;100753.22;5056117;28;20048;-54
2021/07/27 07:55:36;;;;;;;14.98;9.27;;;;;;;22.26;63.54;100744.03;5064047;28;20566;-57
2021/07/27 07:58:03;;;;;;;15.27;9.30;;;;;;;22.29;61.38;100743.28;5082812;28;20491;-55
2021/07/27 08:00:30;;;;;;;15.00;9.15;;;;;;;22.12;61.84;100751.59;5074165;28;20052;-58
2021/07/27 08:03:01;;;;;;;17.27;8.50;;;;;;;22.26;62.09;100752.47;5074537;28;20661;-56
2021/07/27 08:05:28;;;;;;;17.50;8.10;;;;;;;22.33;60.79;100749.69;5063227;28;20045;-56
2021/07/27 08:07:56;;;;;;;17.30;10.27;;;;;;;22.39;60.83;100743.75;5062891;28;20064;-57
2021/07/27 08:10:23;;;;;;;15.98;9.40;;;;;;;22.36;60.47;100742.50;5042452;28;20048;-57
2021/07/27 08:12:51;;;;;;;18.63;8.52;;;;;;;22.28;60.96;100752.09;5055230;28;20056;-59
2021/07/27 08:15:23;;;;;;;13.07;8.50;;;;;;;22.24;61.28;100754.88;5064842;28;20052;-57
2021/07/27 08:17:51;;;;;;;16.95;9.25;;;;;;;21.92;62.25;100748.22;5082645;28;20044;-55
2021/07/27 08:20:19;;;;;;;18.85;9.20;;;;;;;22.03;62.39;100754.72;5081266;28;20631;-60
2021/07/27 08:22:46;;;;;;;16.80;9.52;;;;;;;22.03;62.25;100760.34;5081617;28;20052;-54
2021/07/27 08:25:18;;;;;;;18.60;8.82;;;;;;;21.89;62.25;100757.44;5059616;28;20090;-57
2021/07/27 08:27:46;;;;;;;16.95;9.25;;;;;;;21.63;64.03;100754.78;5079533;28;20044;-55
2021/07/27 08:30:15;;;;;;;18.92;8.82;;;;;;;21.85;63.86;100756.59;5078991;28;20052;-59
2021/07/27 08:32:45;;;;;;;28.40;9.52;;;;;;;21.93;63.03;100749.81;5081756;28;20051;-59
2021/07/27 08:35:14;;;;;;;16.83;8.95;;;;;;;21.96;62.84;100748.25;5082863;28;20048;-58
2021/07/27 08:37:42;;;;;;;17.20;8.93;;;;;;;21.84;63.11;100740.16;5078780;28;20075;-58
2021/07/27 08:40:10;;;;;;;15.38;8.55;;;;;;;22.00;62.68;100733.03;5062254;28;20071;-57
2021/07/27 08:42:41;;;;;;;12.60;8.82;;;;;;;22.02;62.36;100724.28;5062495;28;20044;-58
2021/07/27 08:45:09;;;;;;;20.25;13.13;;;;;;;22.01;62.34;100726.25;5064011;28;20044;-58
2021/07/27 08:47:39;;;;;;;16.42;11.65;;;;;;;21.94;63.19;100745.03;5060539;28;20511;-56
2021/07/27 08:50:09;;;;;;;;;;;;;;;21.92;62.83;100742.63;5078702;28;20060;-58
2021/07/27 08:52:37;;;;;;;13.90;9.43;;;;;;;21.87;63.21;100742.16;5063248;28;19919;-58
2021/07/27 08:55:14;;;;;;;15.18;10.13;;;;;;;21.83;63.87;100742.13;5079001;28;20508;-59
2021/07/27 08:57:56;;;;;;;12.40;9.57;;;;;;;21.84;63.86;100742.94;5063086;28;20051;-58
2021/07/27 09:00:28;;;;;;;15.77;10.77;;;;;;;21.88;64.49;100752.22;5047017;28;20541;-57
2021/07/27 09:03:09;;;;;;;14.73;11.07;;;;;;;21.77;64.32;100760.50;5062288;28;20573;-57
2021/07/27 09:05:37;;;;;;;13.60;9.80;;;;;;;21.85;64.53;100750.97;5046535;28;20056;-57
2021/07/27 09:08:08;;;;;;;18.30;9.68;;;;;;;21.72;64.90;100748.84;5081420;28;20040;-55
2021/07/27 09:10:39;;;;;;;;;;;;;;;21.64;65.57;100761.16;5081504;28;20450;-58
2021/07/27 09:13:11;;;;;;;13.75;10.23;;;;;;;21.45;66.31;100766.97;5061783;28;19921;-60
2021/07/27 09:15:40;;;;;;;28.20;17.63;;;;;;;21.54;66.11;100765.50;5063680;28;20051;-60
2021/07/27 09:18:15;;;;;;;17.70;11.35;;;;;;;21.65;66.09;100762.78;5078929;28;20521;-62
2021/07/27 09:20:47;;;;;;;21.95;10.68;;;;;;;21.67;65.81;100761.19;5061450;28;20048;-57
2021/07/27 09:23:21;;;;;;;19.92;10.93;;;;;;;21.74;66.07;100758.44;5077212;28;20499;-57
2021/07/27 09:25:50;;;;;;;17.95;10.90;;;;;;;;;;5078636;28;20055;-58
2021/07/27 09:28:18;;;;;;;15.88;10.60;;;;;;;21.87;66.24;100757.00;5081345;28;20047;-59
2021/07/27 09:30:46;;;;;;;14.82;9.60;;;;;;;21.71;66.41;100758.41;5078220;28;20044;-57
2021/07/27 09:33:16;;;;;;;17.65;10.80;;;;;;;21.86;66.60;100758.19;5079661;28;20059;-57
2021/07/27 09:35:44;;;;;;;20.60;11.48;;;;;;;21.77;66.81;100762.50;5077957;28;20051;-56
2021/07/27 09:38:16;;;;;;;17.52;11.55;;;;;;;21.80;66.74;100756.94;5080922;28;20055;-58
2021/07/27 09:41:05;;;;;;;13.63;10.50;;;;;;;21.87;66.55;100756.19;5082763;28;20078;-55
2021/07/27 09:43:43;;;;;;;;;;;;;;;21.90;66.39;100756.22;5081760;28;20048;-58
2021/07/27 09:46:10;;;;;;;14.50;9.95;;;;;;;22.07;65.43;100765.97;5082795;28;19927;-59
2021/07/27 09:48:41;;;;;;;15.18;10.68;;;;;;;22.02;65.48;100761.53;5048685;28;20480;-59
2021/07/27 09:51:10;;;;;;;14.75;10.27;;;;;;;21.97;66.04;100761.88;5083034;28;20633;-57
2021/07/27 09:53:40;;;;;;;19.90;10.02;;;;;;;21.94;66.16;100759.06;5066878;28;20052;-57
2021/07/27 09:56:10;;;;;;;14.47;9.93;;;;;;;22.01;66.12;100771.16;5081668;28;20515;-56
2021/07/27 09:58:38;;;;;;;21.35;11.52;;;;;;;22.14;66.19;100775.22;5064300;28;20041;-56
2021/07/27 10:01:17;;;;;;;21.85;10.07;;;;;;;22.18;65.76;100772.44;5083676;28;20398;-56
2021/07/27 10:03:53;;;;;;;17.00;10.07;;;;;;;22.19;65.28;100769.25;5083013;28;20051;-59
2021/07/27 10:06:24;;;;;;;16.88;9.38;;;;;;;22.13;65.34;100775.63;5084332;28;20048;-57
2021/07/27 10:09:02;;;;;;;13.95;9.80;;;;;;;21.95;66.12;100775.50;5065983;28;20546;-57
2021/07/27 10:11:35;;;;;;;15.02;9.68;;;;;;;22.06;66.06;100776.38;5083203;28;20523;-57
2021/07/27 10:14:13;;;;;;;14.05;9.18;;;;;;;22.08;66.31;100776.81;5065538;28;20055;-57
2021/07/27 10:16:42;;;;;;;14.10;9.82;;;;;;;22.19;65.90;100782.50;5084156;28;20049;-57
2021/07/27 10:19:22;;;;;;;20.13;12.02;;;;;;;22.15;65.50;100784.47;5080718;28;20037;-56
2021/07/27 10:22:07;;;;;;;16.63;10.75;;;;;;;22.12;66.13;100779.66;5083406;28;20056;-57
2021/07/27 10:24:41;;;;;;;18.15;12.38;;;;;;;22.26;65.63;100780.53;5064980;28;20056;-57
2021/07/27 10:27:09;;;;;;;21.50;15.70;;;;;;;22.00;66.26;100777.94;5066832;28;20054;-56
2021/07/27 10:29:37;;;;;;;22.00;16.27;;;;;;;21.99;66.31;100781.13;5066283;28;20040;-58
2021/07/27 10:32:23;;;;;;;25.60;19.38;;;;;;;21.95;67.04;100778.28;5084019;28;20051;-58
2021/07/27 10:34:54;;;;;;;23.10;15.00;;;;;;;21.94;67.21;100785.09;5063807;28;20056;-57
2021/07/27 10:37:21;;;;;;;21.67;14.38;;;;;;;21.98;67.30;100780.34;5061639;28;20051;-56
2021/07/27 10:39:53;;;;;;;19.13;14.48;;;;;;;22.06;67.49;100779.19;5078732;28;20053;-56
2021/07/27 10:42:22;;;;;;;17.50;12.13;;;;;;;22.14;67.57;100771.66;5046820;28;20067;-54
2021/07/27 10:44:51;;;;;;;15.60;11.68;;;;;;;22.07;67.97;100777.97;5080953;28;20044;-56
2021/07/27 10:47:20;;;;;;;18.97;11.57;;;;;;;21.98;67.89;100771.13;5047256;28;20048;-58
2021/07/27 10:50:08;;;;;;;18.45;11.65;;;;;;;22.04;67.46;100772.34;5080946;28;20297;-56
2021/07/27 10:52:42;;;;;;;17.20;10.20;;;;;;;21.99;67.97;100773.53;5064537;28;20061;-56
2021/07/27 10:55:11;;;;;;;16.27;11.02;;;;;;;22.04;67.70;100756.31;5065199;28;20491;-55
2021/07/27 10:57:48;;;;;;;30.00;15.20;;;;;;;21.92;68.46;100758.63;5080682;28;20060;-58
2021/07/27 11:00:15;;;;;;;20.35;12.77;;;;;;;21.94;67.93;100751.44;5065219;28;20048;-56
2021/07/27 11:02:43;;;;;;;26.60;14.45;;;;;;;21.94;68.74;100748.66;5064188;28;20055;-56
2021/07/27 11:05:12;;;;;;;24.30;17.55;;;;;;;21.96;67.99;100751.88;5066093;28;20122;-58
2021/07/27 11:07:40;;;;;;;25.20;17.50;;;;;;;22.03;68.36;100754.72;5065033;28;20048;-58
2021/07/27 11:10:07;;;;;;;21.75;12.55;;;;;;;22.02;67.63;100757.94;5083010;28;20040;-55
2021/07/27 11:12:36;;;;;;;15.20;10.57;;;;;;;22.03;67.35;100748.31;5082125;28;20059;-55
2021/07/27 11:15:03;;;;;;;17.30;11.48;;;;;;;21.92;67.78;100748.22;5065655;28;20045;-57
2021/07/27 11:17:31;;;;;;;24.02;11.52;;;;;;;22.07;67.50;100738.72;5084126;28;20048;-56
2021/07/27 11:19:59;;;;;;;18.33;10.60;;;;;;;22.11;67.31;100739.53;5084140;28;20036;-57
2021/07/27 11:22:27;;;;;;;16.98;10.02;;;;;;;22.11;66.89;100736.75;5066018;28;20040;-60
2021/07/27 11:24:55;;;;;;;17.45;10.07;;;;;;;22.19;66.45;100757.25;5084287;28;20435;-57
2021/07/27 11:27:30;;;;;;;13.55;8.98;;;;;;;22.19;66.19;100752.41;5065869;28;20060;-57
2021/07/27 11:30:04;;;;;;;15.05;9.88;;;;;;;22.15;66.68;100757.22;5083117;28;20496;-57
2021/07/27 11:32:45;;;;;;;12.23;9.23;;;;;;;22.04;66.82;100766.75;5083873;28;20055;-58
2021/07/27 11:35:15;;;;;;;18.88;9.27;;;;;;;21.96;67.15;100760.28;5082859;28;20052;-57
2021/07/27 11:37:44;;;;;;;12.40;8.05;;;;;;;21.68;67.81;100759.19;5083248;28;20058;-55
2021/07/27 11:40:24;;;;;;;11.75;8.20;;;;;;;21.85;67.74;100767.81;5083225;28;20044;-58
2021/07/27 11:43:18;;;;;;;12.18;8.45;;;;;;;21.82;68.54;100760.16;5083794;28;20063;-55
2021/07/27 11:45:45;;;;;;;12.52;8.82;;;;;;;21.93;68.29;100766.66;5060901;28;20063;-57
2021/07/27 11:48:13;;;;;;;16.75;9.20;;;;;;;21.84;68.51;100765.38;5064624;28;20062;-56
2021/07/27 11:50:42;;;;;;;16.98;8.80;;;;;;;21.88;68.43;100764.22;5047339;28;20048;-56